createdAt,value
2022-10-24T00:02:22.484Z,83.03
2022-10-24T00:04:49.047Z,83.15
2022-10-24T00:07:15.666Z,83.48
2022-10-24T00:09:42.303Z,83.18
2022-10-24T00:12:08.874Z,82.68
2022-10-24T00:14:35.755Z,82.54
2022-10-24T00:17:02.368Z,83.11
2022-10-24T00:19:28.993Z,83.29
2022-10-24T00:21:55.797Z,82.44
2022-10-24T00:24:22.571Z,82.52
2022-10-24T00:26:49.122Z,82.64
2022-10-24T00:29:15.687Z,82.32
2022-10-24T00:31:42.329Z,81.77
2022-10-24T00:34:08.953Z,81.66
2022-10-24T00:36:35.606Z,81.55
2022-10-24T00:39:02.236Z,81.97
2022-10-24T00:41:31.299Z,82.66
2022-10-24T00:44:17.489Z,82.71
2022-10-24T00:46:46.708Z,82.47
2022-10-24T00:49:15.204Z,82.13
2022-10-24T00:51:41.799Z,82.20
2022-10-24T00:54:10.010Z,82.60
2022-10-24T00:56:39.941Z,82.74
2022-10-24T00:59:07.853Z,82.59
2022-10-24T01:01:34.559Z,82.56
2022-10-24T01:04:01.620Z,82.23
2022-10-24T01:06:41.035Z,82.17
2022-10-24T01:09:18.554Z,82.29
2022-10-24T01:11:52.112Z,82.11
2022-10-24T01:14:41.945Z,82.29
2022-10-24T01:17:22.337Z,82.18
2022-10-24T01:20:07.767Z,82.28
2022-10-24T01:23:08.299Z,82.30
2022-10-24T01:25:59.267Z,82.11
2022-10-24T01:28:29.571Z,81.95
2022-10-24T01:31:16.726Z,81.83
2022-10-24T01:33:48.939Z,82.07
2022-10-24T01:36:18.271Z,81.57
2022-10-24T01:38:47.008Z,81.76
2022-10-24T01:41:21.291Z,81.70
2022-10-24T01:44:09.943Z,81.77
2022-10-24T01:46:40.206Z,81.78
2022-10-24T01:49:12.756Z,81.69
2022-10-24T01:51:39.500Z,81.62
2022-10-24T01:54:06.128Z,81.57
2022-10-24T01:56:47.099Z,81.33
2022-10-24T01:59:25.767Z,81.49
2022-10-24T02:01:53.033Z,81.23
2022-10-24T02:04:19.671Z,80.79
2022-10-24T02:06:46.430Z,80.86
2022-10-24T02:09:16.221Z,80.94
2022-10-24T02:11:42.963Z,80.63
2022-10-24T02:14:16.940Z,80.64
2022-10-24T02:16:44.204Z,80.73
2022-10-24T02:19:10.824Z,80.64
2022-10-24T02:22:11.805Z,80.30
2022-10-24T02:24:52.675Z,80.51
2022-10-24T02:27:23.321Z,80.41
2022-10-24T02:29:55.294Z,80.38
2022-10-24T02:32:26.058Z,80.54
2022-10-24T02:34:52.872Z,80.53
2022-10-24T02:37:19.521Z,80.47
2022-10-24T02:39:46.915Z,80.78
2022-10-24T02:42:13.946Z,80.98
2022-10-24T02:44:41.151Z,81.08
2022-10-24T02:47:07.809Z,81.76
2022-10-24T02:49:34.564Z,81.61
2022-10-24T02:52:01.186Z,81.83
2022-10-24T02:54:27.813Z,82.02
2022-10-24T02:56:58.098Z,82.03
2022-10-24T02:59:24.916Z,81.83
2022-10-24T03:01:51.545Z,81.50
2022-10-24T03:04:18.204Z,81.65
2022-10-24T03:06:44.799Z,81.67
2022-10-24T03:09:11.456Z,81.45
2022-10-24T03:11:38.223Z,81.10
2022-10-24T03:14:05.118Z,81.31
2022-10-24T03:16:31.844Z,81.06
2022-10-24T03:18:58.416Z,81.38
2022-10-24T03:21:24.975Z,81.04
2022-10-24T03:23:51.625Z,81.54
2022-10-24T03:26:18.197Z,81.22
2022-10-24T03:28:44.843Z,81.79
2022-10-24T03:31:11.533Z,81.53
2022-10-24T03:33:38.162Z,81.81
2022-10-24T03:36:05.553Z,81.76
2022-10-24T03:38:32.134Z,82.25
2022-10-24T03:40:58.830Z,82.12
2022-10-24T03:43:25.537Z,81.95
2022-10-24T03:45:52.264Z,82.17
2022-10-24T03:48:18.868Z,82.27
2022-10-24T03:50:45.453Z,81.88
2022-10-24T03:53:12.088Z,81.89
2022-10-24T03:55:38.914Z,82.00
2022-10-24T03:58:05.872Z,82.10
2022-10-24T04:00:35.020Z,82.37
2022-10-24T04:03:01.706Z,82.12
2022-10-24T04:05:28.285Z,82.37
2022-10-24T04:07:55.057Z,82.23
2022-10-24T04:10:21.710Z,82.21
2022-10-24T04:12:48.265Z,81.79
2022-10-24T04:15:14.855Z,81.93
2022-10-24T04:17:41.726Z,82.01
2022-10-24T04:20:08.777Z,82.09
2022-10-24T04:22:35.458Z,82.02
2022-10-24T04:25:02.061Z,82.21
2022-10-24T04:27:28.784Z,82.24
2022-10-24T04:29:55.457Z,82.34
2022-10-24T04:32:22.055Z,82.61
2022-10-24T04:34:48.764Z,82.47
2022-10-24T04:37:15.368Z,82.49
2022-10-24T04:39:42.089Z,82.71
2022-10-24T04:42:08.655Z,82.75
2022-10-24T04:44:35.208Z,83.49
2022-10-24T04:47:01.772Z,83.55
2022-10-24T04:49:28.345Z,83.39
2022-10-24T04:51:54.925Z,83.48
2022-10-24T04:54:21.548Z,83.21
2022-10-24T04:56:48.109Z,83.45
2022-10-24T04:59:14.823Z,83.25
2022-10-24T05:01:41.659Z,83.36
2022-10-24T05:04:08.345Z,83.41
2022-10-24T05:06:35.006Z,83.83
2022-10-24T05:09:01.586Z,83.72
2022-10-24T05:11:28.169Z,83.83
2022-10-24T05:13:54.910Z,83.75
2022-10-24T05:16:21.553Z,83.77
2022-10-24T05:18:48.186Z,83.49
2022-10-24T05:21:14.842Z,83.67
2022-10-24T05:23:41.376Z,83.74
2022-10-24T05:26:07.950Z,84.19
2022-10-24T05:28:34.872Z,84.48
2022-10-24T05:31:01.575Z,84.74
2022-10-24T05:33:28.151Z,84.35
2022-10-24T05:35:54.726Z,84.44
2022-10-24T05:38:21.313Z,84.45
2022-10-24T05:40:49.297Z,84.59
2022-10-24T05:43:16.362Z,84.43
2022-10-24T05:45:43.145Z,84.64
2022-10-24T05:48:09.798Z,84.35
2022-10-24T05:50:36.388Z,84.52
2022-10-24T05:53:03.263Z,84.44
2022-10-24T05:55:31.938Z,84.28
2022-10-24T05:58:37.899Z,84.45
2022-10-24T06:01:05.498Z,84.77
2022-10-24T06:03:34.283Z,84.55
2022-10-24T06:06:08.147Z,84.87
2022-10-24T06:08:35.932Z,85.17
2022-10-24T06:11:02.693Z,85.01
2022-10-24T06:13:33.813Z,85.15
2022-10-24T06:16:03.223Z,85.54
2022-10-24T06:18:29.807Z,85.84
2022-10-24T06:20:59.819Z,86.03
2022-10-24T06:23:26.431Z,85.92
2022-10-24T06:25:53.054Z,86.28
2022-10-24T06:28:19.753Z,85.87
2022-10-24T06:30:48.338Z,86.19
2022-10-24T06:33:14.994Z,86.46
2022-10-24T06:35:41.615Z,86.12
2022-10-24T06:38:08.204Z,85.84
2022-10-24T06:40:34.909Z,85.91
2022-10-24T06:43:01.556Z,85.70
2022-10-24T06:45:28.206Z,85.67
2022-10-24T06:47:55.148Z,85.92
2022-10-24T06:50:21.956Z,85.45
2022-10-24T06:52:48.591Z,85.52
2022-10-24T06:55:15.443Z,84.66
2022-10-24T06:57:42.308Z,84.92
2022-10-24T07:00:10.041Z,84.77
2022-10-24T07:02:36.818Z,84.10
2022-10-24T07:05:03.544Z,83.89
2022-10-24T07:07:30.152Z,83.20
2022-10-24T07:09:57.452Z,83.37
2022-10-24T07:12:24.539Z,83.09
2022-10-24T07:14:51.112Z,83.13
2022-10-24T07:17:19.668Z,82.72
2022-10-24T07:19:46.600Z,82.76
2022-10-24T07:22:13.188Z,82.54
2022-10-24T07:24:39.779Z,81.99
2022-10-24T07:27:06.356Z,82.40
2022-10-24T07:29:32.978Z,82.64
2022-10-24T07:31:59.663Z,82.68
2022-10-24T07:34:26.276Z,81.65
2022-10-24T07:36:53.386Z,81.86
2022-10-24T07:39:21.794Z,80.48
2022-10-24T07:41:48.573Z,79.16
2022-10-24T07:44:15.178Z,78.60
2022-10-24T07:46:42.519Z,78.13
2022-10-24T07:49:09.408Z,76.65
2022-10-24T07:51:35.954Z,74.84
2022-10-24T07:54:02.614Z,74.45
2022-10-24T07:56:29.282Z,73.26
2022-10-24T07:58:56.668Z,72.04
2022-10-24T08:01:24.470Z,71.97
2022-10-24T08:03:51.127Z,71.53
2022-10-24T08:06:19.512Z,70.87
2022-10-24T08:08:46.197Z,66.46
2022-10-24T08:11:23.996Z,65.57
2022-10-24T08:13:51.396Z,64.75
2022-10-24T08:16:18.816Z,62.46
2022-10-24T08:18:45.534Z,60.62
2022-10-24T08:21:14.097Z,59.33
2022-10-24T08:23:42.611Z,59.30
2022-10-24T08:26:09.957Z,59.60
2022-10-24T08:28:36.813Z,58.66
2022-10-24T08:31:05.656Z,59.87
2022-10-24T08:33:32.310Z,60.74
2022-10-24T08:36:00.808Z,61.73
2022-10-24T08:38:28.203Z,62.42
2022-10-24T08:40:55.250Z,63.13
2022-10-24T08:43:21.945Z,64.16
2022-10-24T08:46:04.655Z,64.89
2022-10-24T08:48:42.630Z,65.41
2022-10-24T08:51:51.152Z,66.07
2022-10-24T08:54:20.558Z,66.58
2022-10-24T08:56:47.178Z,68.06
2022-10-24T08:59:13.806Z,68.18
2022-10-24T09:01:43.228Z,69.10
2022-10-24T09:04:10.884Z,69.71
2022-10-24T09:06:37.548Z,69.74
2022-10-24T09:09:13.141Z,70.52
2022-10-24T09:11:56.022Z,70.70
2022-10-24T09:14:33.451Z,70.31
2022-10-24T09:17:10.507Z,70.38
2022-10-24T09:19:37.383Z,70.96
2022-10-24T09:22:03.977Z,71.73
2022-10-24T09:24:42.699Z,72.49
2022-10-24T09:27:24.661Z,72.91
2022-10-24T09:29:52.045Z,73.83
2022-10-24T09:32:23.232Z,73.62
2022-10-24T09:34:50.081Z,74.02
2022-10-24T09:41:17.512Z,73.65
2022-10-24T09:43:43.999Z,73.37
2022-10-24T09:46:12.594Z,73.45
2022-10-24T09:48:42.127Z,73.79
2022-10-24T09:51:08.879Z,73.78
2022-10-24T09:53:37.304Z,73.48
2022-10-24T09:56:12.021Z,73.50
2022-10-24T09:58:38.826Z,73.59
2022-10-24T10:01:07.092Z,74.26
2022-10-24T10:03:34.679Z,74.76
2022-10-24T10:06:04.869Z,74.69
2022-10-24T10:08:32.916Z,74.96
2022-10-24T10:11:08.100Z,74.26
2022-10-24T10:13:38.684Z,74.47
2022-10-24T10:16:07.548Z,75.04
2022-10-24T10:18:40.112Z,75.14
2022-10-24T10:21:12.099Z,75.43
2022-10-24T10:24:02.140Z,75.35
2022-10-24T10:26:45.195Z,75.42
2022-10-24T10:29:18.186Z,75.34
2022-10-24T10:31:46.841Z,75.64
2022-10-24T10:34:21.412Z,75.74
2022-10-24T10:36:52.481Z,75.32
2022-10-24T10:39:45.182Z,75.41
2022-10-24T10:42:20.275Z,75.18
2022-10-24T10:44:52.845Z,75.15
2022-10-24T10:47:47.161Z,74.97
2022-10-24T10:54:10.452Z,75.16
2022-10-24T10:57:02.562Z,75.40
2022-10-24T11:00:12.484Z,74.92
2022-10-24T11:02:56.061Z,73.55
2022-10-24T11:05:44.812Z,73.89
2022-10-24T11:08:26.490Z,73.88
2022-10-24T11:11:02.066Z,73.50
2022-10-24T11:13:37.890Z,73.71
2022-10-24T11:16:07.626Z,73.88
2022-10-24T11:18:35.617Z,73.14
2022-10-24T11:21:05.771Z,73.75
2022-10-24T11:23:41.656Z,73.96
2022-10-24T11:26:09.712Z,73.12
2022-10-24T11:28:48.081Z,72.07
2022-10-24T11:31:19.112Z,71.27
2022-10-24T11:33:47.354Z,71.35
2022-10-24T11:36:20.914Z,71.15
2022-10-24T11:38:58.708Z,71.09
2022-10-24T11:41:56.218Z,70.76
2022-10-24T11:44:44.156Z,71.17
2022-10-24T11:47:39.767Z,71.04
2022-10-24T11:50:29.371Z,71.38
2022-10-24T11:53:03.232Z,70.95
2022-10-24T11:55:39.038Z,71.64
2022-10-24T11:58:09.136Z,72.32
2022-10-24T12:01:17.875Z,72.52
2022-10-24T12:04:35.613Z,71.97
2022-10-24T12:07:27.385Z,71.73
2022-10-24T12:10:18.099Z,72.61
2022-10-24T12:13:13.027Z,72.66
2022-10-24T12:16:08.611Z,73.10
2022-10-24T12:18:39.511Z,73.13
2022-10-24T12:21:08.231Z,73.67
2022-10-24T12:23:35.242Z,73.45
2022-10-24T12:26:06.929Z,73.49
2022-10-24T12:28:33.845Z,73.87
2022-10-24T12:31:22.505Z,73.52
2022-10-24T12:34:22.992Z,73.62
2022-10-24T12:37:12.032Z,73.57
2022-10-24T12:39:47.573Z,74.07
2022-10-24T12:42:37.424Z,73.87
2022-10-24T12:45:03.926Z,74.08
2022-10-24T12:47:43.338Z,73.64
2022-10-24T12:50:22.111Z,73.38
2022-10-24T12:52:48.917Z,72.67
2022-10-24T12:55:39.434Z,72.64
2022-10-24T12:58:28.205Z,72.33
2022-10-24T13:00:58.512Z,72.17
2022-10-24T13:03:37.171Z,73.33
2022-10-24T13:06:09.906Z,73.04
2022-10-24T13:09:05.672Z,74.04
2022-10-24T13:12:13.615Z,74.34
2022-10-24T13:14:47.055Z,74.03
2022-10-24T13:17:30.584Z,74.01
2022-10-24T13:20:15.794Z,74.27
2022-10-24T13:22:42.457Z,74.12
2022-10-24T13:25:33.603Z,74.26
2022-10-24T13:28:19.796Z,74.43
2022-10-24T13:30:49.556Z,75.08
2022-10-24T13:33:28.885Z,74.88
2022-10-24T13:36:16.347Z,74.70
2022-10-24T13:39:02.123Z,73.96
2022-10-24T13:41:32.090Z,73.77
2022-10-24T13:44:28.575Z,74.05
2022-10-24T13:47:33.682Z,74.06
2022-10-24T13:50:17.143Z,74.05
2022-10-24T13:52:58.089Z,74.43
2022-10-24T13:55:25.729Z,74.87
2022-10-24T13:58:05.422Z,74.58
2022-10-24T14:00:33.973Z,74.22
2022-10-24T14:03:02.352Z,74.27
2022-10-24T14:05:32.317Z,74.44
2022-10-24T14:07:59.249Z,74.57
2022-10-24T14:10:25.962Z,74.25
2022-10-24T14:12:57.126Z,74.46
2022-10-24T14:15:28.677Z,74.65
2022-10-24T14:17:58.384Z,74.86
2022-10-24T14:20:28.821Z,74.97
2022-10-24T14:22:55.421Z,75.03
2022-10-24T14:25:36.127Z,74.94
2022-10-24T14:28:10.156Z,75.12
2022-10-24T14:30:36.800Z,75.50
2022-10-24T14:33:15.646Z,75.51
2022-10-24T14:35:42.277Z,75.79
2022-10-24T14:38:12.224Z,75.82
2022-10-24T14:40:38.940Z,76.24
2022-10-24T14:43:05.580Z,76.03
2022-10-24T14:45:32.238Z,76.12
2022-10-24T14:47:59.160Z,75.87
2022-10-24T14:50:42.812Z,76.78
2022-10-24T14:53:25.976Z,76.73
2022-10-24T14:55:57.493Z,76.76
2022-10-24T14:58:25.801Z,76.91
2022-10-24T15:00:54.027Z,77.04
2022-10-24T15:03:20.948Z,76.98
2022-10-24T15:05:59.042Z,77.01
2022-10-24T15:08:28.750Z,77.04
2022-10-24T15:11:16.219Z,77.05
2022-10-24T15:13:59.955Z,77.02
2022-10-24T15:16:38.644Z,77.16
2022-10-24T15:19:06.167Z,77.48
2022-10-24T15:21:37.504Z,77.12
2022-10-24T15:24:04.331Z,77.27
2022-10-24T15:26:40.595Z,77.35
2022-10-24T15:29:14.123Z,77.44
2022-10-24T15:31:48.270Z,77.54
2022-10-24T15:34:19.503Z,77.45
2022-10-24T15:36:46.925Z,77.42
2022-10-24T15:39:15.442Z,77.37
2022-10-24T15:41:42.327Z,77.77
2022-10-24T15:44:17.887Z,77.61
2022-10-24T15:46:45.551Z,77.61
2022-10-24T15:49:12.504Z,77.88
2022-10-24T15:51:39.963Z,77.59
2022-10-24T15:54:06.574Z,78.35
2022-10-24T15:56:33.235Z,78.21
2022-10-24T15:59:00.041Z,78.45
2022-10-24T16:01:38.465Z,78.44
2022-10-24T16:04:08.395Z,78.30
2022-10-24T16:06:35.029Z,78.23
2022-10-24T16:09:01.670Z,78.25
2022-10-24T16:11:29.133Z,78.51
2022-10-24T16:13:56.195Z,78.19
2022-10-24T16:16:22.866Z,78.70
2022-10-24T16:18:49.870Z,78.76
2022-10-24T16:21:18.266Z,78.81
2022-10-24T16:23:45.285Z,78.64
2022-10-24T16:26:12.047Z,78.57
2022-10-24T16:28:38.666Z,78.66
2022-10-24T16:31:05.437Z,78.63
2022-10-24T16:33:32.245Z,78.60
2022-10-24T16:36:00.173Z,79.26
2022-10-24T16:38:26.889Z,79.28
2022-10-24T16:40:54.158Z,79.20
2022-10-24T16:43:20.842Z,79.14
2022-10-24T16:45:56.723Z,78.99
2022-10-24T16:48:23.327Z,79.74
2022-10-24T16:50:49.965Z,79.48
2022-10-24T16:53:18.492Z,78.84
2022-10-24T16:55:49.128Z,79.15
2022-10-24T16:58:15.884Z,79.60
2022-10-24T17:00:42.599Z,79.64
2022-10-24T17:03:09.416Z,79.93
2022-10-24T17:05:36.073Z,80.25
2022-10-24T17:08:02.747Z,80.11
2022-10-24T17:10:29.328Z,80.06
2022-10-24T17:12:56.451Z,80.80
2022-10-24T17:15:23.190Z,80.70
2022-10-24T17:17:49.974Z,80.68
2022-10-24T17:20:17.450Z,80.83
2022-10-24T17:22:45.021Z,80.80
2022-10-24T17:25:23.023Z,81.39
2022-10-24T17:27:49.858Z,81.63
2022-10-24T17:30:27.301Z,81.94
2022-10-24T17:32:54.095Z,81.48
2022-10-24T17:35:21.986Z,81.70
2022-10-24T17:38:00.474Z,81.82
2022-10-24T17:40:29.444Z,81.36
2022-10-24T17:42:56.438Z,81.97
2022-10-24T17:45:24.376Z,81.67
2022-10-24T17:47:51.104Z,82.14
2022-10-24T17:50:17.974Z,82.33
2022-10-24T17:52:50.247Z,82.65
2022-10-24T17:55:46.058Z,82.33
2022-10-24T17:58:13.026Z,82.21
2022-10-24T18:00:39.735Z,82.29
2022-10-24T18:03:08.674Z,82.37
2022-10-24T18:05:38.309Z,82.31
2022-10-24T18:08:06.601Z,82.80
2022-10-24T18:10:33.276Z,82.58
2022-10-24T18:13:00.345Z,82.47
2022-10-24T18:15:27.404Z,82.79
2022-10-24T18:17:54.207Z,82.92
2022-10-24T18:20:20.930Z,82.50
2022-10-24T18:22:47.970Z,82.80
2022-10-24T18:25:20.179Z,82.32
2022-10-24T18:27:49.526Z,82.41
2022-10-24T18:30:16.315Z,82.72
2022-10-24T18:32:43.264Z,83.07
2022-10-24T18:35:10.096Z,83.37
2022-10-24T18:37:37.047Z,83.15
2022-10-24T18:40:05.168Z,83.35
2022-10-24T18:42:57.837Z,83.02
2022-10-24T18:45:25.794Z,83.17
2022-10-24T18:47:53.024Z,83.21
2022-10-24T18:50:21.738Z,83.03
2022-10-24T18:53:03.805Z,83.26
2022-10-24T18:55:31.135Z,83.49
2022-10-24T18:57:58.082Z,83.12
2022-10-24T19:00:26.364Z,83.24
2022-10-24T19:03:16.111Z,83.43
2022-10-24T19:05:51.903Z,83.06
2022-10-24T19:08:22.829Z,83.41
2022-10-24T19:10:51.804Z,83.34
2022-10-24T19:13:18.688Z,83.18
2022-10-24T19:15:57.247Z,83.00
2022-10-24T19:18:23.964Z,82.69
2022-10-24T19:20:50.708Z,83.04
2022-10-24T19:23:18.421Z,83.23
2022-10-24T19:25:45.279Z,83.12
2022-10-24T19:28:13.287Z,83.05
2022-10-24T19:30:42.386Z,82.95
2022-10-24T19:33:09.515Z,82.99
2022-10-24T19:35:40.442Z,82.92
2022-10-24T19:38:07.173Z,83.27
2022-10-24T19:40:33.831Z,83.12
2022-10-24T19:43:00.535Z,82.85
2022-10-24T19:45:27.258Z,82.74
2022-10-24T19:47:56.624Z,83.10
2022-10-24T19:50:23.347Z,82.57
2022-10-24T19:52:50.076Z,82.76
2022-10-24T19:55:16.843Z,82.46
2022-10-24T19:57:58.847Z,82.63
2022-10-24T20:00:26.268Z,82.90
2022-10-24T20:02:53.023Z,82.97
2022-10-24T20:05:19.767Z,82.89
2022-10-24T20:07:46.500Z,82.85
2022-10-24T20:10:13.259Z,83.19
2022-10-24T20:12:39.965Z,82.90
2022-10-24T20:15:07.328Z,83.46
2022-10-24T20:17:35.587Z,83.49
2022-10-24T20:20:03.487Z,83.60
2022-10-24T20:22:30.227Z,83.79
2022-10-24T20:24:56.822Z,83.88
2022-10-24T20:27:24.762Z,84.06
2022-10-24T20:29:52.954Z,84.04
2022-10-24T20:32:20.279Z,84.38
2022-10-24T20:34:46.950Z,84.95
2022-10-24T20:37:13.582Z,84.81
2022-10-24T20:39:40.250Z,84.83
2022-10-24T20:42:06.893Z,84.98
2022-10-24T20:44:33.722Z,85.32
2022-10-24T20:47:00.459Z,85.00
2022-10-24T20:49:27.076Z,85.33
2022-10-24T20:51:53.654Z,85.25
2022-10-24T20:54:20.229Z,85.13
2022-10-24T20:56:46.926Z,85.57
2022-10-24T20:59:14.953Z,85.55
2022-10-24T21:01:41.679Z,85.27
2022-10-24T21:04:08.422Z,85.87
2022-10-24T21:06:35.015Z,85.29
2022-10-24T21:11:31.519Z,85.67
2022-10-24T21:14:02.585Z,85.44
2022-10-24T21:16:29.647Z,85.75
2022-10-24T21:18:57.071Z,86.26
2022-10-24T21:21:23.966Z,86.18
2022-10-24T21:23:51.975Z,86.44
2022-10-24T21:26:19.186Z,86.50
2022-10-24T21:28:45.761Z,86.50
2022-10-24T21:31:14.189Z,86.97
2022-10-24T21:33:43.661Z,86.73
2022-10-24T21:36:21.107Z,86.83
2022-10-24T21:38:49.037Z,87.01
2022-10-24T21:41:15.634Z,87.24
2022-10-24T21:43:42.371Z,87.01
2022-10-24T21:46:10.831Z,87.21
2022-10-24T21:48:38.147Z,87.28
2022-10-24T21:51:07.002Z,87.68
2022-10-24T21:53:38.090Z,87.55
2022-10-24T21:56:05.993Z,87.80
2022-10-24T21:58:32.596Z,87.45
2022-10-24T22:00:59.269Z,87.55
2022-10-24T22:03:25.870Z,87.86
2022-10-24T22:05:55.946Z,87.84
2022-10-24T22:08:23.324Z,87.69
2022-10-24T22:11:00.899Z,87.62
2022-10-24T22:13:27.676Z,87.88
2022-10-24T22:15:54.803Z,87.53
2022-10-24T22:18:22.413Z,87.60
2022-10-24T22:20:49.219Z,87.50
2022-10-24T22:23:15.888Z,87.68
2022-10-24T22:25:42.505Z,87.09
2022-10-24T22:28:09.091Z,87.39
2022-10-24T22:30:35.903Z,87.13
2022-10-24T22:33:02.744Z,86.94
2022-10-24T22:35:29.789Z,87.01
2022-10-24T22:37:56.641Z,87.06
2022-10-24T22:40:27.878Z,86.96
2022-10-24T22:42:54.675Z,87.00
2022-10-24T22:45:21.890Z,86.93
2022-10-24T22:48:07.090Z,86.64
2022-10-24T22:50:50.342Z,86.58
2022-10-24T22:53:24.933Z,86.52
2022-10-24T22:55:54.515Z,86.58
2022-10-24T22:58:21.632Z,86.32
2022-10-24T23:00:50.998Z,86.51
2022-10-24T23:03:37.365Z,86.79
2022-10-24T23:06:14.959Z,86.92
2022-10-24T23:08:43.871Z,86.41
2022-10-24T23:11:11.676Z,86.00
2022-10-24T23:13:39.264Z,85.77
2022-10-24T23:16:10.652Z,85.98
2022-10-24T23:18:37.376Z,85.85
2022-10-24T23:21:20.129Z,86.23
2022-10-24T23:23:47.032Z,86.37
2022-10-24T23:26:24.187Z,86.43
2022-10-24T23:28:58.624Z,86.55
2022-10-24T23:31:25.539Z,87.31
2022-10-24T23:33:52.392Z,87.37
2022-10-24T23:36:23.021Z,87.54
2022-10-24T23:38:52.181Z,87.65
2022-10-24T23:41:19.031Z,87.81
2022-10-24T23:43:45.957Z,87.86
2022-10-24T23:46:25.830Z,87.72
2022-10-24T23:49:08.618Z,88.09
2022-10-24T23:51:41.284Z,88.00
2022-10-24T23:54:11.898Z,88.05
2022-10-24T23:56:38.896Z,87.81
2022-10-24T23:59:05.655Z,88.01
